Time;durP1;ratioP1;P1;durP2;ratioP2;P2;SDS_P1;SDS_P2;PMS_P1;PMS_P2;Temp;Humidity;BMP_temperature;BMP_pressure;BME280_temperature;BME280_humidity;BME280_pressure;Samples;Min_cycle;Max_cycle;Signal;HPM_P1;HPM_P2
2022/12/08 00:01:34;;;;;;;7.95;1.65;;;;;;;;;;5046669;28;20068;-75
2022/12/08 00:04:01;;;;;;;8.23;1.85;;;;;;;;;;5046240;28;20049;-75
2022/12/08 00:09:31;;;;;;;6.82;1.63;;;;;;;;;;5045357;28;20057;-75
2022/12/08 00:12:03;;;;;;;12.88;2.10;;;;;;;;;;5052872;28;20499;-75
2022/12/08 00:14:55;;;;;;;8.57;2.25;;;;;;;;;;5054687;28;20053;-76
2022/12/08 00:17:21;;;;;;;13.43;2.03;;;;;;;;;;5050084;28;20048;-75
2022/12/08 00:19:49;;;;;;;11.77;2.05;;;;;;;;;;5054126;28;20041;-76
2022/12/08 00:22:15;;;;;;;9.77;1.90;;;;;;;;;;5054716;28;20067;-75
2022/12/08 00:24:43;;;;;;;8.32;2.05;;;;;;;;;;5055042;28;20049;-76
2022/12/08 00:27:10;;;;;;;7.82;1.80;;;;;;;;;;5051754;28;20076;-75
2022/12/08 00:29:37;;;;;;;6.18;1.70;;;;;;;;;;5032393;28;20045;-75
2022/12/08 00:32:03;;;;;;;8.73;1.92;;;;;;;;;;5045118;28;20180;-75
2022/12/08 00:34:30;;;;;;;8.65;2.00;;;;;;;;;;5045350;28;20128;-75
2022/12/08 00:36:56;;;;;;;10.90;1.90;;;;;;;;;;5026526;28;20048;-75
2022/12/08 00:39:22;;;;;;;9.35;2.28;;;;;;;;;;5044883;28;20051;-75
2022/12/08 00:44:32;;;;;;;7.47;1.77;;;;;;;;;;5051410;28;20415;-75
2022/12/08 00:46:59;;;;;;;7.35;2.35;;;;;;;;;;5050614;28;20258;-75
2022/12/08 00:49:25;;;;;;;6.47;2.10;;;;;;;;;;5052448;28;20095;-75
2022/12/08 00:51:51;;;;;;;8.48;1.88;;;;;;;;;;5052911;28;20115;-75
2022/12/08 00:54:17;;;;;;;9.57;1.98;;;;;;;;;;5050156;28;20407;-75
2022/12/08 00:56:43;;;;;;;11.45;2.00;;;;;;;;;;5051373;28;20192;-75
2022/12/08 00:59:09;;;;;;;9.70;2.63;;;;;;;;;;5049489;28;20057;-75
2022/12/08 01:01:36;;;;;;;10.68;2.13;;;;;;;;;;5048428;28;20055;-75
2022/12/08 01:04:03;;;;;;;12.32;2.13;;;;;;;;;;5045053;28;20032;-75
2022/12/08 01:06:29;;;;;;;9.20;2.50;;;;;;;;;;5045143;28;20036;-76
2022/12/08 01:08:55;;;;;;;10.35;2.17;;;;;;;;;;5050432;28;20048;-75
2022/12/08 01:11:21;;;;;;;11.18;1.90;;;;;;;;;;5053465;28;20049;-75
2022/12/08 01:13:47;;;;;;;13.48;2.00;;;;;;;;;;5053058;28;20049;-76
2022/12/08 01:16:24;;;;;;;9.13;1.80;;;;;;;;;;5052128;28;20052;-75
2022/12/08 01:18:50;;;;;;;9.45;1.70;;;;;;;;;;5053456;28;20049;-75
2022/12/08 01:21:16;;;;;;;5.82;1.73;;;;;;;;;;5053408;28;20048;-76
2022/12/08 01:23:42;;;;;;;11.30;2.05;;;;;;;;;;5053204;28;20132;-76
2022/12/08 01:26:09;;;;;;;6.72;1.88;;;;;;;;;;5053368;28;20119;-75
2022/12/08 01:28:36;;;;;;;10.45;1.73;;;;;;;;;;5034990;28;20106;-76
2022/12/08 01:31:02;;;;;;;8.93;1.90;;;;;;;;;;5053444;28;20048;-75
2022/12/08 01:33:28;;;;;;;5.22;1.50;;;;;;;;;;5052413;28;20406;-75
2022/12/08 01:35:55;;;;;;;12.90;2.30;;;;;;;;;;5053207;28;20518;-76
2022/12/08 01:38:21;;;;;;;9.55;1.75;;;;;;;;;;5052996;28;20037;-75
2022/12/08 01:40:47;;;;;;;10.57;2.25;;;;;;;;;;5044759;28;20041;-75
2022/12/08 01:43:18;;;;;;;8.15;2.08;;;;;;;;;;5044073;28;20057;-75
2022/12/08 01:45:44;;;;;;;6.13;1.90;;;;;;;;;;5044192;28;20146;-76
2022/12/08 01:48:25;;;;;;;14.43;2.03;;;;;;;;;;5025848;28;20095;-75
2022/12/08 01:50:53;;;;;;;8.25;1.90;;;;;;;;;;5026082;28;20037;-75
2022/12/08 01:53:23;;;;;;;9.32;1.88;;;;;;;;;;5043361;28;20044;-75
2022/12/08 01:55:55;;;;;;;11.47;2.47;;;;;;;;;;5043338;28;20399;-75
2022/12/08 01:58:42;;;;;;;7.45;1.92;;;;;;;;;;5041217;28;20295;-76
2022/12/08 02:01:09;;;;;;;10.52;2.55;;;;;;;;;;5043506;28;20458;-75
2022/12/08 02:03:41;;;;;;;8.60;2.13;;;;;;;;;;5048899;28;20067;-75
2022/12/08 02:06:08;;;;;;;8.27;2.20;;;;;;;;;;5049139;28;20037;-75
2022/12/08 02:08:35;;;;;;;8.05;2.30;;;;;;;;;;5049426;28;20048;-75
2022/12/08 02:11:01;;;;;;;8.85;2.60;;;;;;;;;;5050218;28;20055;-75
2022/12/08 02:13:27;;;;;;;9.63;2.38;;;;;;;;;;5052675;28;20045;-75
2022/12/08 02:16:04;;;;;;;6.75;2.40;;;;;;;;;;5051746;28;20083;-75
2022/12/08 02:18:30;;;;;;;10.57;2.45;;;;;;;;;;5051592;28;20075;-75
2022/12/08 02:21:03;;;;;;;10.30;2.72;;;;;;;;;;5040411;28;20049;-75
2022/12/08 02:23:45;;;;;;;7.32;2.63;;;;;;;;;;5034727;28;20052;-75
2022/12/08 02:26:17;;;;;;;8.20;2.75;;;;;;;;;;5050171;28;20044;-76
2022/12/08 02:29:02;;;;;;;9.60;3.15;;;;;;;;;;5034167;28;20092;-75
2022/12/08 02:31:31;;;;;;;10.82;2.60;;;;;;;;;;5052523;28;20522;-76
2022/12/08 02:34:09;;;;;;;7.40;2.88;;;;;;;;;;5052563;28;20049;-75
2022/12/08 02:36:35;;;;;;;10.02;2.70;;;;;;;;;;5052485;28;20048;-76
2022/12/08 02:39:10;;;;;;;10.63;2.78;;;;;;;;;;5018281;28;20052;-76
2022/12/08 02:41:53;;;;;;;8.73;2.53;;;;;;;;;;5033063;28;20061;-75
2022/12/08 02:44:23;;;;;;;8.40;2.20;;;;;;;;;;5042575;28;20041;-76
2022/12/08 02:47:02;;;;;;;6.85;2.22;;;;;;;;;;5042581;28;20040;-75
2022/12/08 02:49:32;;;;;;;4.63;2.20;;;;;;;;;;5046624;28;20045;-75
2022/12/08 02:52:05;;;;;;;6.20;2.08;;;;;;;;;;5044246;28;20049;-76
2022/12/08 02:54:31;;;;;;;6.03;1.60;;;;;;;;;;5042386;28;20445;-75
2022/12/08 02:57:06;;;;;;;5.32;2.05;;;;;;;;;;5043802;28;20049;-75
2022/12/08 02:59:44;;;;;;;7.43;1.80;;;;;;;;;;5042558;28;20426;-75
2022/12/08 03:02:13;;;;;;;7.32;2.00;;;;;;;;;;5026204;28;20051;-75
2022/12/08 03:04:58;;;;;;;6.60;2.10;;;;;;;;;;5046470;28;20052;-75
2022/12/08 03:07:44;;;;;;;9.80;2.42;;;;;;;;;;5028035;28;20132;-76
2022/12/08 03:10:10;;;;;;;9.70;2.50;;;;;;;;;;5048938;28;20514;-75
2022/12/08 03:12:36;;;;;;;9.07;2.20;;;;;;;;;;5034868;28;20049;-75
2022/12/08 03:15:07;;;;;;;9.20;2.20;;;;;;;;;;5046562;28;20056;-75
2022/12/08 03:17:34;;;;;;;10.50;3.15;;;;;;;;;;5046915;28;20041;-75
2022/12/08 03:20:02;;;;;;;8.95;2.65;;;;;;;;;;5053699;28;20033;-75
2022/12/08 03:22:29;;;;;;;6.03;1.90;;;;;;;;;;5054981;28;20048;-75
2022/12/08 03:24:56;;;;;;;6.93;1.90;;;;;;;;;;5055123;28;20079;-76
2022/12/08 03:27:24;;;;;;;5.55;1.67;;;;;;;;;;5054788;28;20522;-75
2022/12/08 03:29:51;;;;;;;7.22;2.17;;;;;;;;;;5055545;28;20052;-76
2022/12/08 03:32:28;;;;;;;6.10;2.13;;;;;;;;;;5053569;28;20048;-75
2022/12/08 03:34:55;;;;;;;7.53;2.40;;;;;;;;;;5053929;28;20041;-75
2022/12/08 03:37:22;;;;;;;8.00;2.10;;;;;;;;;;5054787;28;20125;-75
2022/12/08 03:39:48;;;;;;;6.82;1.98;;;;;;;;;;5054956;28;20045;-75
2022/12/08 03:42:14;;;;;;;5.55;1.58;;;;;;;;;;5055537;28;20087;-76
2022/12/08 03:44:40;;;;;;;6.05;1.80;;;;;;;;;;5055564;28;20045;-76
2022/12/08 03:47:06;;;;;;;5.00;1.75;;;;;;;;;;5054598;28;20495;-75
2022/12/08 03:49:32;;;;;;;9.82;2.13;;;;;;;;;;5053233;28;20049;-75
2022/12/08 03:51:58;;;;;;;5.85;1.70;;;;;;;;;;5055405;28;20049;-76
2022/12/08 03:54:24;;;;;;;6.15;1.90;;;;;;;;;;5053614;28;20102;-76
2022/12/08 03:56:50;;;;;;;7.50;1.70;;;;;;;;;;5054676;28;20041;-76
2022/12/08 03:59:16;;;;;;;4.70;1.50;;;;;;;;;;5052269;28;20056;-76
2022/12/08 04:01:42;;;;;;;6.28;1.90;;;;;;;;;;5051056;28;20057;-75
2022/12/08 04:04:08;;;;;;;4.82;1.67;;;;;;;;;;5052383;28;20056;-75
2022/12/08 04:06:34;;;;;;;4.70;1.83;;;;;;;;;;5051742;28;20041;-75
2022/12/08 04:09:00;;;;;;;5.25;1.90;;;;;;;;;;5051624;28;20045;-75
2022/12/08 04:11:26;;;;;;;7.78;1.95;;;;;;;;;;5053749;28;20515;-76
2022/12/08 04:13:52;;;;;;;4.65;1.80;;;;;;;;;;5034491;28;20064;-75
2022/12/08 04:16:20;;;;;;;7.18;2.00;;;;;;;;;;5053857;28;20127;-75
2022/12/08 04:18:46;;;;;;;5.95;1.77;;;;;;;;;;5035093;28;20052;-76
2022/12/08 04:21:13;;;;;;;4.18;1.83;;;;;;;;;;5052066;28;20159;-75
2022/12/08 04:23:39;;;;;;;3.28;1.35;;;;;;;;;;5051610;28;20053;-75
2022/12/08 04:26:05;;;;;;;5.32;1.50;;;;;;;;;;5046046;28;20418;-75
2022/12/08 04:28:32;;;;;;;5.40;1.70;;;;;;;;;;5027611;28;20049;-75
2022/12/08 04:30:58;;;;;;;4.28;1.50;;;;;;;;;;5045511;28;20052;-75
2022/12/08 04:33:24;;;;;;;5.38;1.38;;;;;;;;;;5025284;28;20052;-75
2022/12/08 04:35:50;;;;;;;3.42;1.17;;;;;;;;;;5045223;28;20146;-75
2022/12/08 04:38:16;;;;;;;3.92;1.20;;;;;;;;;;5044817;28;20041;-75
2022/12/08 04:40:42;;;;;;;4.03;1.10;;;;;;;;;;5044966;28;20732;-75
2022/12/08 04:43:08;;;;;;;3.65;1.02;;;;;;;;;;5045022;28;20793;-75
2022/12/08 04:45:35;;;;;;;3.08;0.90;;;;;;;;;;5045283;28;20403;-75
2022/12/08 04:48:01;;;;;;;3.75;0.90;;;;;;;;;;5010661;28;20131;-75
2022/12/08 04:50:27;;;;;;;6.32;1.10;;;;;;;;;;5045884;28;20407;-75
2022/12/08 04:52:53;;;;;;;3.78;1.23;;;;;;;;;;5044408;28;20502;-75
2022/12/08 04:55:20;;;;;;;5.40;1.20;;;;;;;;;;5046166;28;20049;-75
2022/12/08 04:57:46;;;;;;;4.32;1.10;;;;;;;;;;5044911;28;20041;-75
2022/12/08 05:00:12;;;;;;;6.28;2.20;;;;;;;;;;5044363;28;20052;-75
2022/12/08 05:02:38;;;;;;;4.45;1.13;;;;;;;;;;5044048;28;20126;-75
2022/12/08 05:05:05;;;;;;;2.35;0.90;;;;;;;;;;5045041;28;20045;-75
2022/12/08 05:07:31;;;;;;;5.75;1.10;;;;;;;;;;5027748;28;20071;-75
2022/12/08 05:09:57;;;;;;;4.32;1.20;;;;;;;;;;5043595;28;20044;-75
2022/12/08 05:12:23;;;;;;;5.50;1.55;;;;;;;;;;5030644;28;20544;-75
2022/12/08 05:14:49;;;;;;;5.07;1.38;;;;;;;;;;5010017;28;20380;-75
2022/12/08 05:17:16;;;;;;;2.80;1.30;;;;;;;;;;5044405;28;20052;-75
2022/12/08 05:19:42;;;;;;;5.55;1.30;;;;;;;;;;5051860;28;20037;-76
2022/12/08 05:22:08;;;;;;;4.90;1.40;;;;;;;;;;5052124;28;20533;-75
2022/12/08 05:24:34;;;;;;;4.22;1.35;;;;;;;;;;5052691;28;20049;-75
2022/12/08 05:27:00;;;;;;;4.45;1.60;;;;;;;;;;5053755;28;20044;-75
2022/12/08 05:29:27;;;;;;;5.60;1.58;;;;;;;;;;5035498;28;20406;-75
2022/12/08 05:31:53;;;;;;;5.88;1.50;;;;;;;;;;5012063;28;20049;-76
2022/12/08 05:34:19;;;;;;;4.85;1.50;;;;;;;;;;5021581;28;20578;-76
2022/12/08 05:36:45;;;;;;;5.40;1.50;;;;;;;;;;5045134;28;20045;-75
2022/12/08 05:39:14;;;;;;;5.07;1.80;;;;;;;;;;5015902;28;20056;-75
2022/12/08 05:41:41;;;;;;;4.65;1.60;;;;;;;;;;5033274;28;20053;-76
2022/12/08 05:44:07;;;;;;;4.63;1.42;;;;;;;;;;5015420;28;20518;-75
2022/12/08 05:46:34;;;;;;;3.55;1.30;;;;;;;;;;5033108;28;20487;-76
2022/12/08 05:49:00;;;;;;;4.90;1.50;;;;;;;;;;5040091;28;20503;-75
2022/12/08 05:51:26;;;;;;;5.05;1.52;;;;;;;;;;5030201;28;20110;-75
2022/12/08 05:53:53;;;;;;;4.57;1.65;;;;;;;;;;5044222;28;20048;-75
2022/12/08 05:56:19;;;;;;;5.03;1.60;;;;;;;;;;5030774;28;20045;-75
2022/12/08 05:58:45;;;;;;;5.15;1.85;;;;;;;;;;5044658;28;20053;-75
2022/12/08 06:01:18;;;;;;;4.25;1.60;;;;;;;;;;5044217;28;20522;-75
2022/12/08 06:03:44;;;;;;;4.28;1.60;;;;;;;;;;5043860;28;20045;-75
2022/12/08 06:06:10;;;;;;;7.50;1.88;;;;;;;;;;5042765;28;20490;-75
2022/12/08 06:08:36;;;;;;;4.47;1.40;;;;;;;;;;5043630;28;20407;-75
2022/12/08 06:11:03;;;;;;;3.80;1.30;;;;;;;;;;5043508;28;20044;-75
2022/12/08 06:13:29;;;;;;;3.22;1.05;;;;;;;;;;5044823;28;20045;-75
2022/12/08 06:15:55;;;;;;;4.28;1.05;;;;;;;;;;5044491;28;20064;-75
2022/12/08 06:18:21;;;;;;;4.53;1.20;;;;;;;;;;5043470;28;20529;-75
2022/12/08 06:20:47;;;;;;;2.45;0.80;;;;;;;;;;5043228;28;20473;-75
2022/12/08 06:23:13;;;;;;;3.40;0.85;;;;;;;;;;5044243;28;20075;-75
2022/12/08 06:25:39;;;;;;;4.95;0.82;;;;;;;;;;5048479;28;20041;-75
2022/12/08 06:28:06;;;;;;;3.75;0.90;;;;;;;;;;5032529;28;20099;-74
2022/12/08 06:30:32;;;;;;;3.42;1.10;;;;;;;;;;5051108;28;20487;-75
2022/12/08 06:32:58;;;;;;;6.15;1.45;;;;;;;;;;5050790;28;20525;-75
2022/12/08 06:35:25;;;;;;;3.63;1.20;;;;;;;;;;5050723;28;20415;-75
2022/12/08 06:37:51;;;;;;;4.93;1.30;;;;;;;;;;5055202;28;20053;-75
2022/12/08 06:40:17;;;;;;;2.88;1.05;;;;;;;;;;5052250;28;20865;-75
2022/12/08 06:42:43;;;;;;;4.20;0.80;;;;;;;;;;5046014;28;20134;-75
2022/12/08 06:45:10;;;;;;;4.57;1.17;;;;;;;;;;5048087;28;20749;-75
2022/12/08 06:47:36;;;;;;;4.15;1.23;;;;;;;;;;5046948;28;20079;-75
2022/12/08 06:50:03;;;;;;;4.60;0.90;;;;;;;;;;5048411;28;20856;-75
2022/12/08 06:52:29;;;;;;;4.93;0.98;;;;;;;;;;5048073;28;20044;-75
2022/12/08 06:54:55;;;;;;;3.17;0.70;;;;;;;;;;5047511;28;20037;-75
2022/12/08 06:57:22;;;;;;;3.53;0.80;;;;;;;;;;5029715;28;20072;-76
2022/12/08 06:59:48;;;;;;;2.60;0.82;;;;;;;;;;5048229;28;20049;-75
2022/12/08 07:02:16;;;;;;;3.05;1.00;;;;;;;;;;5045868;28;20499;-75
2022/12/08 07:04:42;;;;;;;5.88;1.13;;;;;;;;;;5028278;28;20693;-75
2022/12/08 07:07:08;;;;;;;2.95;0.90;;;;;;;;;;5047529;28;20150;-75
2022/12/08 07:09:34;;;;;;;3.55;0.85;;;;;;;;;;5047543;28;20044;-76
2022/12/08 07:12:00;;;;;;;4.60;0.95;;;;;;;;;;5048300;28;20056;-75
2022/12/08 07:14:26;;;;;;;6.13;1.45;;;;;;;;;;5047124;28;20048;-75
2022/12/08 07:16:52;;;;;;;4.43;1.52;;;;;;;;;;5047428;28;20072;-75
2022/12/08 07:19:18;;;;;;;8.40;2.55;;;;;;;;;;5049401;28;20040;-75
2022/12/08 07:21:44;;;;;;;8.88;3.28;;;;;;;;;;5055978;28;20495;-77
2022/12/08 07:24:10;;;;;;;6.18;2.85;;;;;;;;;;5038164;28;20095;-76
2022/12/08 07:26:37;;;;;;;7.90;3.38;;;;;;;;;;5037492;28;20049;-76
2022/12/08 07:29:03;;;;;;;7.35;3.45;;;;;;;;;;5055528;28;20049;-77
2022/12/08 07:31:29;;;;;;;7.05;4.03;;;;;;;;;;5054519;28;20443;-76
2022/12/08 07:33:56;;;;;;;11.13;4.63;;;;;;;;;;5053924;28;20060;-78
2022/12/08 07:36:22;;;;;;;10.10;4.95;;;;;;;;;;5041787;28;20046;-77
2022/12/08 07:38:48;;;;;;;11.80;4.93;;;;;;;;;;5045286;28;20049;-76
2022/12/08 07:41:16;;;;;;;9.82;4.88;;;;;;;;;;5052934;28;20052;-77
2022/12/08 07:43:42;;;;;;;9.43;4.45;;;;;;;;;;5051212;28;20048;-78
2022/12/08 07:46:11;;;;;;;10.25;4.70;;;;;;;;;;5033721;28;20057;-78
2022/12/08 07:48:37;;;;;;;11.23;5.03;;;;;;;;;;5025470;28;20045;-76
2022/12/08 07:51:03;;;;;;;13.32;6.30;;;;;;;;;;5025979;28;20052;-76
2022/12/08 07:53:30;;;;;;;11.43;6.18;;;;;;;;;;5050826;28;20509;-76
2022/12/08 07:55:56;;;;;;;14.38;7.57;;;;;;;;;;5036564;28;20071;-75
2022/12/08 07:58:22;;;;;;;15.55;7.82;;;;;;;;;;5054221;28;20083;-78
2022/12/08 08:00:48;;;;;;;14.38;7.35;;;;;;;;;;5053772;28;20037;-78
2022/12/08 08:03:14;;;;;;;12.95;7.68;;;;;;;;;;5053243;28;20049;-77
2022/12/08 08:05:41;;;;;;;14.68;5.65;;;;;;;;;;5053558;28;20111;-76
2022/12/08 08:08:07;;;;;;;10.15;5.15;;;;;;;;;;5019883;28;20049;-76
2022/12/08 08:10:33;;;;;;;11.20;4.93;;;;;;;;;;5053388;28;20045;-76
2022/12/08 08:12:59;;;;;;;11.38;6.47;;;;;;;;;;5024939;28;20052;-76
2022/12/08 08:15:26;;;;;;;9.13;4.00;;;;;;;;;;5053994;28;20136;-75
2022/12/08 08:17:52;;;;;;;9.35;4.55;;;;;;;;;;5051559;28;20041;-76
2022/12/08 08:20:19;;;;;;;7.95;3.88;;;;;;;;;;5053819;28;20089;-76
2022/12/08 08:22:46;;;;;;;7.03;3.30;;;;;;;;;;5053284;28;20052;-76
2022/12/08 08:25:13;;;;;;;6.35;3.47;;;;;;;;;;5035519;28;20101;-76
2022/12/08 08:27:39;;;;;;;9.20;3.97;;;;;;;;;;5053785;28;20048;-77
2022/12/08 08:30:09;;;;;;;10.38;4.93;;;;;;;;;;5054026;28;20048;-77
2022/12/08 08:32:35;;;;;;;9.32;5.55;;;;;;;;;;5054901;28;20094;-76
2022/12/08 08:35:01;;;;;;;10.73;5.00;;;;;;;;;;5052614;28;20090;-77
2022/12/08 08:37:27;;;;;;;10.95;6.40;;;;;;;;;;5032337;28;20091;-77
2022/12/08 08:39:53;;;;;;;11.68;7.00;;;;;;;;;;5053111;28;20069;-77
2022/12/08 08:42:19;;;;;;;13.73;8.63;;;;;;;;;;5052892;28;20051;-77
2022/12/08 08:44:46;;;;;;;16.73;9.20;;;;;;;;;;5053007;28;20048;-77
2022/12/08 08:47:12;;;;;;;10.85;6.60;;;;;;;;;;5035563;28;20056;-77
2022/12/08 08:49:38;;;;;;;9.75;5.38;;;;;;;;;;5045593;28;20419;-76
2022/12/08 08:52:04;;;;;;;9.57;5.38;;;;;;;;;;5041174;28;20053;-77
2022/12/08 08:54:31;;;;;;;11.98;5.65;;;;;;;;;;5050256;28;20041;-76
2022/12/08 08:56:57;;;;;;;9.10;4.88;;;;;;;;;;5047920;28;20356;-76
2022/12/08 08:59:24;;;;;;;11.15;5.07;;;;;;;;;;5032965;28;20122;-76
2022/12/08 09:01:50;;;;;;;12.27;5.13;;;;;;;;;;5049964;28;20049;-76
2022/12/08 09:04:16;;;;;;;12.07;4.97;;;;;;;;;;5034656;28;20483;-76
2022/12/08 09:06:44;;;;;;;9.23;5.22;;;;;;;;;;5052218;28;20060;-77
2022/12/08 09:09:10;;;;;;;10.90;5.45;;;;;;;;;;5051592;28;20060;-76
2022/12/08 09:11:36;;;;;;;9.20;5.18;;;;;;;;;;5048021;28;20068;-76
2022/12/08 09:14:03;;;;;;;8.75;4.55;;;;;;;;;;5042387;28;20052;-77
2022/12/08 09:16:29;;;;;;;12.25;5.10;;;;;;;;;;5051303;28;20053;-73
2022/12/08 09:18:55;;;;;;;11.07;5.70;;;;;;;;;;5050959;28;20094;-76
2022/12/08 09:21:22;;;;;;;10.80;4.97;;;;;;;;;;5047345;28;20122;-73
2022/12/08 09:23:49;;;;;;;11.80;4.45;;;;;;;;;;5051377;28;20047;-74
2022/12/08 09:26:15;;;;;;;9.45;4.25;;;;;;;;;;5052102;28;20041;-76
2022/12/08 09:28:45;;;;;;;7.65;3.88;;;;;;;;;;5051492;28;20451;-73
2022/12/08 09:31:14;;;;;;;11.57;4.00;;;;;;;;;;5051259;28;20049;-74
2022/12/08 09:33:40;;;;;;;8.35;4.03;;;;;;;;;;5051770;28;20053;-74
2022/12/08 09:36:06;;;;;;;9.10;4.25;;;;;;;;;;5034289;28;20053;-78
2022/12/08 09:38:32;;;;;;;8.30;3.33;;;;;;;;;;5049822;28;20495;-75
2022/12/08 09:40:59;;;;;;;8.30;3.58;;;;;;;;;;5051318;28;20183;-74
2022/12/08 09:43:28;;;;;;;11.23;3.67;;;;;;;;;;5049683;28;20041;-75
2022/12/08 09:45:54;;;;;;;8.38;3.58;;;;;;;;;;5049928;28;20057;-75
2022/12/08 09:48:23;;;;;;;11.57;3.83;;;;;;;;;;5032051;28;20044;-75
2022/12/08 09:50:52;;;;;;;9.38;3.60;;;;;;;;;;5048684;28;20048;-76
2022/12/08 09:53:31;;;;;;;17.50;3.83;;;;;;;;;;5048544;28;20045;-74
2022/12/08 09:56:03;;;;;;;12.18;3.70;;;;;;;;;;5045029;28;20061;-74
2022/12/08 09:58:29;;;;;;;;;;;;;;;;;;5030155;28;20048;-74
2022/12/08 10:00:55;;;;;;;11.88;3.28;;;;;;;;;;5049581;28;19924;-73
2022/12/08 10:03:24;;;;;;;11.18;3.05;;;;;;;;;;5047159;28;20490;-72
2022/12/08 10:05:54;;;;;;;10.10;3.17;;;;;;;;;;5051075;28;20048;-72
2022/12/08 10:08:24;;;;;;;16.58;3.25;;;;;;;;;;5049554;28;20045;-72
2022/12/08 10:10:57;;;;;;;11.10;2.85;;;;;;;;;;5045783;28;20053;-71
2022/12/08 10:13:35;;;;;;;11.80;3.42;;;;;;;;;;5027994;28;20410;-71
2022/12/08 10:16:03;;;;;;;9.13;3.25;;;;;;;;;;5040527;28;20053;-76
2022/12/08 10:18:31;;;;;;;9.27;3.80;;;;;;;;;;5048096;28;20060;-73
2022/12/08 10:20:59;;;;;;;12.20;3.53;;;;;;;;;;5043805;28;20041;-73
2022/12/08 10:23:34;;;;;;;10.48;3.67;;;;;;;;;;5044808;28;20402;-72
2022/12/08 10:26:01;;;;;;;10.95;5.10;;;;;;;;;;5043517;28;20095;-71
2022/12/08 10:28:27;;;;;;;13.93;5.57;;;;;;;;;;5045147;28;20052;-72
2022/12/08 10:30:53;;;;;;;17.33;4.82;;;;;;;;;;5044640;28;20048;-72
2022/12/08 10:33:20;;;;;;;13.43;3.92;;;;;;;;;;5044003;28;20045;-71
2022/12/08 10:35:57;;;;;;;12.63;3.13;;;;;;;;;;5044274;28;20049;-72
2022/12/08 10:38:26;;;;;;;21.77;4.60;;;;;;;;;;5045346;28;20076;-72
2022/12/08 10:40:56;;;;;;;15.05;3.58;;;;;;;;;;5046288;28;20446;-72
2022/12/08 10:43:25;;;;;;;10.63;3.40;;;;;;;;;;5044302;28;20056;-72
2022/12/08 10:45:51;;;;;;;12.02;3.53;;;;;;;;;;5045043;28;20043;-72
2022/12/08 10:48:17;;;;;;;11.45;2.70;;;;;;;;;;5049880;28;20037;-72
2022/12/08 10:50:49;;;;;;;12.15;2.72;;;;;;;;;;5049928;28;20195;-72
2022/12/08 10:53:15;;;;;;;7.75;2.33;;;;;;;;;;5047540;28;20049;-72
2022/12/08 10:55:41;;;;;;;7.35;2.20;;;;;;;;;;5032449;28;20041;-72
2022/12/08 10:58:27;;;;;;;9.20;2.15;;;;;;;;;;5051216;28;20053;-72
2022/12/08 11:00:55;;;;;;;13.68;2.53;;;;;;;;;;5049631;28;20465;-72
2022/12/08 11:03:24;;;;;;;8.68;2.10;;;;;;;;;;5050701;28;20037;-72
2022/12/08 11:05:50;;;;;;;8.52;2.10;;;;;;;;;;5049687;28;20522;-72
2022/12/08 11:08:16;;;;;;;6.28;1.83;;;;;;;;;;5049897;28;20049;-72
2022/12/08 11:10:43;;;;;;;6.60;2.10;;;;;;;;;;5032495;28;20051;-73
2022/12/08 11:13:15;;;;;;;5.43;1.80;;;;;;;;;;5050224;28;20099;-73
2022/12/08 11:15:45;;;;;;;9.73;2.25;;;;;;;;;;5044427;28;21503;-72
2022/12/08 11:18:21;;;;;;;9.82;1.88;;;;;;;;;;5048683;28;20037;-72
2022/12/08 11:20:55;;;;;;;6.38;2.17;;;;;;;;;;5045194;28;20120;-72
2022/12/08 11:23:23;;;;;;;6.15;2.00;;;;;;;;;;5048385;28;20053;-72
2022/12/08 11:25:50;;;;;;;7.97;2.30;;;;;;;;;;5051126;28;20470;-72
2022/12/08 11:28:16;;;;;;;7.63;2.38;;;;;;;;;;5054472;28;20084;-72
2022/12/08 11:30:45;;;;;;;9.02;2.67;;;;;;;;;;5038220;28;20053;-72
2022/12/08 11:33:24;;;;;;;8.18;2.55;;;;;;;;;;5048897;28;20041;-72
2022/12/08 11:35:59;;;;;;;8.10;2.80;;;;;;;;;;5054296;28;20080;-72
2022/12/08 11:38:26;;;;;;;9.30;3.05;;;;;;;;;;5050299;28;20072;-72
2022/12/08 11:40:55;;;;;;;10.13;3.22;;;;;;;;;;5053098;28;20090;-72
2022/12/08 11:43:25;;;;;;;7.70;3.30;;;;;;;;;;5034917;28;20414;-72
2022/12/08 11:45:56;;;;;;;11.50;3.65;;;;;;;;;;5052794;28;20053;-72
2022/12/08 11:48:28;;;;;;;9.55;3.72;;;;;;;;;;5051766;28;20044;-72
2022/12/08 11:51:07;;;;;;;7.18;3.15;;;;;;;;;;5049804;28;20392;-72
2022/12/08 11:53:36;;;;;;;8.07;3.00;;;;;;;;;;5030936;28;20044;-72
2022/12/08 11:56:21;;;;;;;7.90;2.90;;;;;;;;;;5050919;28;20499;-73
2022/12/08 11:58:58;;;;;;;12.00;3.35;;;;;;;;;;5050970;28;20572;-75
2022/12/08 12:01:25;;;;;;;18.85;3.40;;;;;;;;;;5053574;28;20410;-75
2022/12/08 12:04:02;;;;;;;10.10;2.97;;;;;;;;;;5053097;28;20053;-73
2022/12/08 12:06:46;;;;;;;12.88;3.22;;;;;;;;;;5052543;28;20045;-76
2022/12/08 12:09:13;;;;;;;10.55;2.70;;;;;;;;;;5046671;28;20491;-72
2022/12/08 12:14:40;;;;;;;9.50;2.90;;;;;;;;;;5051226;28;20394;-73
2022/12/08 12:17:08;;;;;;;11.75;3.40;;;;;;;;;;5051403;28;20053;-71
2022/12/08 12:19:36;;;;;;;7.38;2.47;;;;;;;;;;5051649;28;20429;-71
2022/12/08 12:22:19;;;;;;;8.32;3.03;;;;;;;;;;5046462;28;20053;-73
2022/12/08 12:24:47;;;;;;;6.07;2.60;;;;;;;;;;5047551;28;20498;-72
2022/12/08 12:27:13;;;;;;;8.00;2.90;;;;;;;;;;5046005;28;20037;-72
2022/12/08 12:29:45;;;;;;;13.10;3.10;;;;;;;;;;5046858;28;20052;-74
2022/12/08 12:32:11;;;;;;;10.40;3.05;;;;;;;;;;5048066;28;20502;-73
2022/12/08 12:34:44;;;;;;;18.15;3.80;;;;;;;;;;5048557;28;20048;-74
2022/12/08 12:37:12;;;;;;;9.32;3.03;;;;;;;;;;5046930;28;20522;-73
2022/12/08 12:39:47;;;;;;;16.92;3.20;;;;;;;;;;5045089;28;20402;-73
2022/12/08 12:42:32;;;;;;;7.97;2.97;;;;;;;;;;5045347;28;20049;-71
2022/12/08 12:45:16;;;;;;;9.43;2.55;;;;;;;;;;5046603;28;20060;-70
2022/12/08 12:47:54;;;;;;;11.68;3.05;;;;;;;;;;5046636;28;20045;-70
2022/12/08 12:50:33;;;;;;;12.73;3.22;;;;;;;;;;5046776;28;20140;-71
2022/12/08 12:53:17;;;;;;;14.68;3.40;;;;;;;;;;5046353;28;20503;-70
2022/12/08 12:55:50;;;;;;;9.10;2.80;;;;;;;;;;5048401;28;20049;-71
2022/12/08 12:58:20;;;;;;;14.98;3.22;;;;;;;;;;5048336;28;20053;-72
2022/12/08 13:00:46;;;;;;;10.57;3.70;;;;;;;;;;5051973;28;20490;-72
2022/12/08 13:03:14;;;;;;;12.70;3.47;;;;;;;;;;5051098;28;20064;-76
2022/12/08 13:05:49;;;;;;;13.60;3.38;;;;;;;;;;5050997;28;20380;-75
2022/12/08 13:08:22;;;;;;;11.40;3.17;;;;;;;;;;5047096;28;20419;-72
2022/12/08 13:10:57;;;;;;;32.85;4.97;;;;;;;;;;5047028;28;20040;-75
2022/12/08 13:13:23;;;;;;;18.50;3.33;;;;;;;;;;5049895;28;20395;-73
2022/12/08 13:15:52;;;;;;;41.58;5.60;;;;;;;;;;5050141;28;20390;-74
2022/12/08 13:18:19;;;;;;;7.03;2.85;;;;;;;;;;5050714;28;20044;-72
2022/12/08 13:20:51;;;;;;;15.95;3.53;;;;;;;;;;5038438;28;20148;-73
2022/12/08 13:23:26;;;;;;;18.50;4.10;;;;;;;;;;5044170;28;20491;-73
2022/12/08 13:26:01;;;;;;;10.25;3.50;;;;;;;;;;5046023;28;20113;-73
2022/12/08 13:28:28;;;;;;;6.95;3.30;;;;;;;;;;5048146;28;20053;-73
2022/12/08 13:30:55;;;;;;;21.67;3.90;;;;;;;;;;5051975;28;20061;-75
2022/12/08 13:33:29;;;;;;;10.80;5.78;;;;;;;;;;5032614;28;20099;-73
2022/12/08 13:36:05;;;;;;;15.68;5.75;;;;;;;;;;5050901;28;20041;-72
2022/12/08 13:38:34;;;;;;;20.67;4.93;;;;;;;;;;5050258;28;20095;-72
2022/12/08 13:41:01;;;;;;;11.73;3.40;;;;;;;;;;5009079;28;20539;-73
2022/12/08 13:43:36;;;;;;;27.50;4.93;;;;;;;;;;5042511;28;20036;-73
2022/12/08 13:46:05;;;;;;;10.82;3.58;;;;;;;;;;5051155;28;20052;-73
2022/12/08 13:48:35;;;;;;;30.33;5.75;;;;;;;;;;5041393;28;20045;-72
2022/12/08 13:51:04;;;;;;;7.55;2.92;;;;;;;;;;5030691;28;20052;-73
2022/12/08 13:53:36;;;;;;;21.10;4.93;;;;;;;;;;5049539;28;20075;-73
2022/12/08 13:56:02;;;;;;;14.95;3.58;;;;;;;;;;5049138;28;20056;-72
2022/12/08 13:58:30;;;;;;;11.15;2.83;;;;;;;;;;5039762;28;20045;-73
2022/12/08 14:01:02;;;;;;;11.70;3.38;;;;;;;;;;5036556;28;20046;-72
2022/12/08 14:03:28;;;;;;;20.98;4.47;;;;;;;;;;5032122;28;20129;-73
2022/12/08 14:05:54;;;;;;;12.80;3.42;;;;;;;;;;5040527;28;20521;-72
2022/12/08 14:08:28;;;;;;;16.75;4.13;;;;;;;;;;5047652;28;20052;-72
2022/12/08 14:10:58;;;;;;;13.30;3.67;;;;;;;;;;5052186;28;20080;-73
2022/12/08 14:13:24;;;;;;;15.13;3.92;;;;;;;;;;5051090;28;20052;-73
2022/12/08 14:15:51;;;;;;;12.20;2.55;;;;;;;;;;5032021;28;20049;-73
2022/12/08 14:18:28;;;;;;;12.65;2.90;;;;;;;;;;5051651;28;20049;-72
2022/12/08 14:21:11;;;;;;;25.90;3.80;;;;;;;;;;5051989;28;20045;-73
2022/12/08 14:23:37;;;;;;;7.95;3.00;;;;;;;;;;5051667;28;20048;-72
2022/12/08 14:26:04;;;;;;;10.15;3.88;;;;;;;;;;5051740;28;20081;-72
2022/12/08 14:28:31;;;;;;;17.80;6.20;;;;;;;;;;5051851;28;20083;-72
2022/12/08 14:30:57;;;;;;;21.33;7.97;;;;;;;;;;5051932;28;20056;-73
2022/12/08 14:33:24;;;;;;;13.27;5.82;;;;;;;;;;5051739;28;20085;-72
2022/12/08 14:35:51;;;;;;;12.90;3.90;;;;;;;;;;5049102;28;20041;-72
2022/12/08 14:38:19;;;;;;;11.55;3.95;;;;;;;;;;5051302;28;20044;-72
2022/12/08 14:40:59;;;;;;;13.05;4.18;;;;;;;;;;5051741;28;20041;-73
2022/12/08 14:43:26;;;;;;;11.73;4.30;;;;;;;;;;5050234;28;20120;-72
2022/12/08 14:45:53;;;;;;;14.23;4.50;;;;;;;;;;5052144;28;20045;-72
2022/12/08 14:48:20;;;;;;;10.75;4.70;;;;;;;;;;5016870;28;20045;-73
2022/12/08 14:51:05;;;;;;;13.93;4.88;;;;;;;;;;5051612;28;20041;-73
2022/12/08 14:53:31;;;;;;;11.57;3.80;;;;;;;;;;5050699;28;20112;-72
2022/12/08 14:55:57;;;;;;;14.07;4.50;;;;;;;;;;5051648;28;20431;-73